createdAt,value
2023-01-27T00:01:00.642Z,12.30
2023-01-27T00:03:27.889Z,12.40
2023-01-27T00:05:55.846Z,12.60
2023-01-27T00:08:23.472Z,13.50
2023-01-27T00:11:10.552Z,12.30
2023-01-27T00:13:37.574Z,13.20
2023-01-27T00:16:05.500Z,14.60
2023-01-27T00:18:33.031Z,13.50
2023-01-27T00:21:18.702Z,13.50
2023-01-27T00:24:04.644Z,12.70
2023-01-27T00:26:32.798Z,13.50
2023-01-27T00:29:00.405Z,14.90
2023-01-27T00:31:46.674Z,14.70
2023-01-27T00:34:15.978Z,14.20
2023-01-27T00:36:43.786Z,14.60
2023-01-27T00:39:12.328Z,13.90
2023-01-27T00:41:41.399Z,15.20
2023-01-27T00:44:12.527Z,13.90
2023-01-27T00:46:41.388Z,14.20
2023-01-27T00:49:09.311Z,13.80
2023-01-27T00:51:37.424Z,14.20
2023-01-27T00:54:04.870Z,14.60
2023-01-27T00:56:32.031Z,14.10
2023-01-27T07:22:59.965Z,23.40
2023-01-27T07:25:27.710Z,21.00
2023-01-27T07:27:58.147Z,21.10
2023-01-27T07:30:27.200Z,21.70
2023-01-27T07:33:07.969Z,21.30
2023-01-27T07:35:36.232Z,19.80
2023-01-27T07:38:03.997Z,20.10
2023-01-27T07:40:31.114Z,20.00
2023-01-27T07:43:00.265Z,18.30
2023-01-27T07:45:28.093Z,20.60
2023-01-27T07:48:02.321Z,17.60
2023-01-27T07:50:29.978Z,17.00
2023-01-27T07:53:04.274Z,15.80
2023-01-27T07:55:31.949Z,16.50
2023-01-27T07:57:59.978Z,16.60
2023-01-27T08:00:28.636Z,16.10
2023-01-27T08:02:56.313Z,16.70
2023-01-27T08:05:23.547Z,17.10
2023-01-27T08:07:50.959Z,15.80
2023-01-27T08:10:18.683Z,15.50
2023-01-27T08:12:45.880Z,16.80
2023-01-27T08:15:13.335Z,16.20
2023-01-27T08:17:42.792Z,15.90
2023-01-27T08:20:11.468Z,17.50
2023-01-27T08:22:41.298Z,17.80
2023-01-27T08:25:09.046Z,16.70
2023-01-27T08:27:37.365Z,15.30
2023-01-27T08:30:06.826Z,16.60
2023-01-27T08:32:35.496Z,15.30
2023-01-27T08:35:02.944Z,13.70
2023-01-27T08:37:30.706Z,15.20
2023-01-27T08:39:58.029Z,15.10
2023-01-27T08:42:26.620Z,16.50
2023-01-27T08:44:54.114Z,16.40
2023-01-27T08:47:24.051Z,16.30
2023-01-27T08:49:51.292Z,15.50
2023-01-27T08:52:18.946Z,16.70
2023-01-27T08:54:46.273Z,14.40
2023-01-27T08:57:13.971Z,16.50
2023-01-27T08:59:41.700Z,15.50
2023-01-27T09:02:09.833Z,17.80
2023-01-27T09:04:40.803Z,17.00
2023-01-27T09:07:07.935Z,17.30
2023-01-27T09:09:35.527Z,18.50
2023-01-27T09:12:02.587Z,16.10
2023-01-27T09:14:30.779Z,15.60
2023-01-27T09:16:58.320Z,15.90
2023-01-27T09:19:25.734Z,15.60
2023-01-27T09:21:53.448Z,15.70
2023-01-27T09:24:20.710Z,16.60
2023-01-27T09:26:48.263Z,15.60
2023-01-27T09:29:15.714Z,15.30
2023-01-27T09:31:43.141Z,16.80
2023-01-27T09:34:11.798Z,15.10
2023-01-27T09:36:46.886Z,15.50
2023-01-27T09:39:14.264Z,15.60
2023-01-27T09:41:55.084Z,13.10
2023-01-27T09:44:28.588Z,13.70
2023-01-27T09:47:23.498Z,12.40
2023-01-27T09:50:02.849Z,15.10
2023-01-27T09:52:47.894Z,14.20
2023-01-27T09:55:21.767Z,12.90
2023-01-27T09:58:04.587Z,13.00
2023-01-27T10:01:04.652Z,12.70
2023-01-27T10:04:03.118Z,12.60
2023-01-27T10:06:49.260Z,13.70
2023-01-27T14:38:53.937Z,23.20
2023-01-27T14:41:37.808Z,23.90
2023-01-27T14:44:06.367Z,20.90
2023-01-27T14:47:01.743Z,20.70
2023-01-27T14:49:49.004Z,19.70
2023-01-27T14:52:37.284Z,18.10
2023-01-27T14:55:16.736Z,17.20
2023-01-27T14:58:17.583Z,19.50
2023-01-27T15:01:06.558Z,20.80
2023-01-27T15:03:54.138Z,21.90
2023-01-27T15:06:35.015Z,19.80
2023-01-27T15:09:18.811Z,18.90
2023-01-27T15:12:19.711Z,18.20
2023-01-27T15:15:06.703Z,17.60
2023-01-27T15:17:47.519Z,18.70
2023-01-27T15:20:31.012Z,17.30
2023-01-27T15:23:18.463Z,20.20
2023-01-27T15:25:50.598Z,17.90
2023-01-27T15:28:21.276Z,17.80
2023-01-27T15:31:19.738Z,18.00
2023-01-27T15:33:51.332Z,19.00
2023-01-27T15:36:29.364Z,19.20
2023-01-27T15:39:10.022Z,16.90
2023-01-27T15:42:03.617Z,17.20
2023-01-27T15:44:38.531Z,15.80
2023-01-27T15:47:19.246Z,17.20
2023-01-27T15:49:49.351Z,17.80
2023-01-27T15:52:29.504Z,16.40
2023-01-27T15:55:02.726Z,17.80
2023-01-27T15:57:38.328Z,16.00
2023-01-27T16:00:28.088Z,18.80
2023-01-27T16:03:02.537Z,17.60
2023-01-27T16:05:36.869Z,18.70
2023-01-27T16:08:12.602Z,18.60
2023-01-27T16:10:41.222Z,17.80
2023-01-27T16:13:28.530Z,18.20
2023-01-27T16:16:19.656Z,18.00
2023-01-27T16:19:11.211Z,18.50
2023-01-27T16:21:58.382Z,18.60
2023-01-27T16:24:29.541Z,18.60
2023-01-27T16:27:07.858Z,17.50
2023-01-27T16:29:39.964Z,18.80
2023-01-27T16:32:25.822Z,16.80
2023-01-27T16:35:02.611Z,15.50
2023-01-27T16:37:33.221Z,17.60
2023-01-27T16:40:14.982Z,18.20
2023-01-27T16:42:53.947Z,17.40
2023-01-27T16:45:29.560Z,18.70
2023-01-27T16:48:04.031Z,18.00
2023-01-27T16:50:36.925Z,17.70
2023-01-27T16:53:07.379Z,17.20
2023-01-27T16:55:35.625Z,17.60
2023-01-27T16:58:04.219Z,17.50
2023-01-27T17:00:34.007Z,16.90
2023-01-27T17:03:05.177Z,15.80
2023-01-27T17:05:33.487Z,16.80
2023-01-27T17:08:02.802Z,17.40
2023-01-27T17:10:35.584Z,16.80
2023-01-27T17:13:04.707Z,16.40
2023-01-27T17:15:38.417Z,16.00
2023-01-27T17:18:10.533Z,17.60
2023-01-27T17:20:41.284Z,17.10
2023-01-27T17:23:19.924Z,17.60
2023-01-27T17:25:51.995Z,17.10
2023-01-27T17:28:27.501Z,18.50
2023-01-27T17:31:08.243Z,17.60
2023-01-27T17:33:38.459Z,16.40
2023-01-27T17:36:11.071Z,15.50
2023-01-27T17:38:54.634Z,16.90
2023-01-27T17:41:34.697Z,17.40
2023-01-27T17:44:14.378Z,16.50
2023-01-27T17:46:43.430Z,17.80
2023-01-27T17:49:16.279Z,16.30
2023-01-27T17:51:55.958Z,18.90
2023-01-27T17:54:38.324Z,19.20
2023-01-27T17:57:21.534Z,18.10
2023-01-27T18:00:01.775Z,17.40
2023-01-27T18:02:35.882Z,18.20
2023-01-27T18:05:06.062Z,18.60
2023-01-27T18:07:35.640Z,18.70
2023-01-27T18:10:24.245Z,15.30
2023-01-27T18:12:53.874Z,16.90
2023-01-27T18:15:34.669Z,17.20
2023-01-27T18:20:37.280Z,19.50
2023-01-27T18:23:09.963Z,17.60
2023-01-27T18:25:39.170Z,18.00
2023-01-27T18:28:21.457Z,16.90
2023-01-27T18:30:52.404Z,18.70
2023-01-27T18:36:00.049Z,17.50
2023-01-27T18:38:32.762Z,25.60
2023-01-27T18:41:11.584Z,16.50
2023-01-27T18:43:40.443Z,16.20
2023-01-27T18:46:11.241Z,18.80
2023-01-27T18:48:40.236Z,17.70
2023-01-27T18:51:12.687Z,16.80
2023-01-27T18:53:43.801Z,18.50
2023-01-27T18:56:12.565Z,19.00
2023-01-27T18:58:42.263Z,20.20
2023-01-27T19:01:14.988Z,18.80
2023-01-27T19:03:45.083Z,18.90
2023-01-27T19:06:19.519Z,19.00
2023-01-27T19:08:49.815Z,18.70
2023-01-27T19:11:20.128Z,20.60
